Observation data for Morton on 02/15/2018      Previous  Date  Next       Current Mesonet Observations  Soil Data  Daily Summary Page  Observations in Plain Language
KMNS 150600Z 21011KT 16/M00 A3003 RMK A01 T01551004  RH  034%=      5-min Rain = 0
KMNS 150605Z 21011KT 16/M00 A3003 RMK A01 T01551003  RH  034%=      5-min Rain = 0
KMNS 150610Z 21012KT 16/M00 A3003 RMK A01 T01571002  RH  034%=      5-min Rain = 0
KMNS 150615Z 21011KT 16/M00 A3003 RMK A01 T01591002  RH  034%=      5-min Rain = 0
KMNS 150620Z 21012KT 16/M00 A3003 RMK A01 T01571003  RH  034%=      5-min Rain = 0
KMNS 150625Z 22012KT 16/M00 A3003 RMK A01 T01581003  RH  034%=      5-min Rain = 0
KMNS 150630Z 22011KT 16/M00 A3003 RMK A01 T01591002  RH  034%=      5-min Rain = 0
KMNS 150635Z 22010KT 16/M00 A3002 RMK A01 T01571002  RH  034%=      5-min Rain = 0
KMNS 150640Z 22011KT 16/M00 A3002 RMK A01 T01551002  RH  034%=      5-min Rain = 0
KMNS 150645Z 22011KT 16/M00 A3002 RMK A01 T01551002  RH  035%=      5-min Rain = 0
KMNS 150650Z 21011KT 15/M00 A3002 RMK A01 T01531002  RH  035%=      5-min Rain = 0
KMNS 150655Z 21011KT 15/M00 A3002 RMK A01 T01541002  RH  035%=      5-min Rain = 0
KMNS 150700Z 21011KT 15/M00 A3002 RMK A01 T01531002  RH  035%=      5-min Rain = 0
KMNS 150705Z 21011KT 15/M00 A3002 RMK A01 T01521002  RH  035%=      5-min Rain = 0
KMNS 150710Z 22010KT 15/M00 A3002 RMK A01 T01521002  RH  035%=      5-min Rain = 0
KMNS 150715Z 22010KT 15/M00 A3002 RMK A01 T01521002  RH  035%=      5-min Rain = 0
KMNS 150720Z 22010KT 15/M00 A3002 RMK A01 T01501002  RH  036%=      5-min Rain = 0
KMNS 150725Z 22010KT 15/M00 A3002 RMK A01 T01501002  RH  036%=      5-min Rain = 0
KMNS 150730Z 22010KT 15/M00 A3002 RMK A01 T01481002  RH  036%=      5-min Rain = 0
KMNS 150735Z 22009KT 15/M00 A3002 RMK A01 T01471002  RH  036%=      5-min Rain = 0
KMNS 150740Z 22009KT 15/M00 A3002 RMK A01 T01451002  RH  037%=      5-min Rain = 0
KMNS 150745Z 22009KT 14/M00 A3002 RMK A01 T01421003  RH  037%=      5-min Rain = 0
KMNS 150750Z 23008KT 14/M00 A3002 RMK A01 T01381003  RH  038%=      5-min Rain = 0
KMNS 150755Z 25009KT 13/M00 A3002 RMK A01 T01341004  RH  039%=      5-min Rain = 0
KMNS 150800Z 24010KT 14/M00 A3002 RMK A01 T01361002  RH  039%=      5-min Rain = 0
KMNS 150805Z 25009KT 13/M00 A3002 RMK A01 T01331003  RH  040%=      5-min Rain = 0
KMNS 150810Z 25010KT 13/M00 A3002 RMK A01 T01311002  RH  041%=      5-min Rain = 0
KMNS 150815Z 25009KT 13/M00 A3002 RMK A01 T01301001  RH  041%=      5-min Rain = 0
KMNS 150820Z 25009KT 13/00 A3002 RMK A01 T01310000  RH  041%=      5-min Rain = 0
KMNS 150825Z 26009KT 13/00 A3002 RMK A01 T01290000  RH  041%=      5-min Rain = 0
KMNS 150830Z 25008KT 13/00 A3002 RMK A01 T012700-0  RH  042%=      5-min Rain = 0
KMNS 150835Z 23009KT 13/00 A3001 RMK A01 T01270002  RH  043%=      5-min Rain = 0
KMNS 150840Z 21008KT 14/01 A3002 RMK A01 T01380006  RH  041%=      5-min Rain = 0
KMNS 150845Z 21008KT 13/M00 A3002 RMK A01 T01251002  RH  042%=      5-min Rain = 0
KMNS 150850Z 20008KT 12/M00 A3002 RMK A01 T01211003  RH  043%=      5-min Rain = 0
KMNS 150855Z 21008KT 12/M00 A3002 RMK A01 T01191001  RH  044%=      5-min Rain = 0
KMNS 150900Z 22008KT 12/00 A3002 RMK A01 T01220000  RH  044%=      5-min Rain = 0
KMNS 150905Z 21009KT 12/00 A3002 RMK A01 T01240002  RH  044%=      5-min Rain = 0
KMNS 150910Z 21009KT 12/00 A3002 RMK A01 T01240002  RH  044%=      5-min Rain = 0
KMNS 150915Z 22009KT 12/00 A3002 RMK A01 T01230002  RH  044%=      5-min Rain = 0
KMNS 150920Z 22010KT 13/00 A3002 RMK A01 T01260004  RH  043%=      5-min Rain = 0
KMNS 150925Z 21011KT 13/00 A3002 RMK A01 T01290004  RH  043%=      5-min Rain = 0
KMNS 150930Z 21011KT 13/01 A3001 RMK A01 T01300005  RH  043%=      5-min Rain = 0
KMNS 150935Z 21010KT 13/01 A3001 RMK A01 T01310006  RH  043%=      5-min Rain = 0
KMNS 150940Z 21009KT 13/00 A3001 RMK A01 T01270004  RH  043%=      5-min Rain = 0
KMNS 150945Z 22010KT 13/00 A3001 RMK A01 T01270004  RH  043%=      5-min Rain = 0
KMNS 150950Z 22011KT 13/00 A30 RMK A01 T01310004  RH  042%=      5-min Rain = 0
KMNS 150955Z 22011KT 13/00 A30 RMK A01 T01330003  RH  041%=      5-min Rain = 0
KMNS 151000Z 22011KT 13/00 A30 RMK A01 T01330001  RH  041%=      5-min Rain = 0
KMNS 151005Z 21011KT 13/00 A30 RMK A01 T01320000  RH  041%=      5-min Rain = 0
KMNS 151010Z 21011KT 13/M00 A30 RMK A01 T01291001  RH  041%=      5-min Rain = 0
KMNS 151015Z 21011KT 13/M00 A30 RMK A01 T01251003  RH  042%=      5-min Rain = 0
KMNS 151020Z 21011KT 12/M00 A30 RMK A01 T01211004  RH  042%=      5-min Rain = 0
KMNS 151025Z 21011KT 12/M01 A2999 RMK A01 T01191005  RH  043%=      5-min Rain = 0
KMNS 151030Z 21011KT 12/M01 A2999 RMK A01 T01171005  RH  043%=      5-min Rain = 0
KMNS 151035Z 21011KT 12/M00 A2999 RMK A01 T01161004  RH  044%=      5-min Rain = 0
KMNS 151040Z 21012KT 12/M00 A2999 RMK A01 T01171004  RH  044%=      5-min Rain = 0
KMNS 151045Z 21012KT 12/M00 A2999 RMK A01 T01161003  RH  044%=      5-min Rain = 0
KMNS 151050Z 21012KT 12/M00 A2998 RMK A01 T01171002  RH  044%=      5-min Rain = 0
KMNS 151055Z 21012KT 12/M00 A2998 RMK A01 T01161002  RH  045%=      5-min Rain = 0
KMNS 151100Z 21012KT 11/M00 A2998 RMK A01 T01141002  RH  045%=      5-min Rain = 0
KMNS 151105Z 21011KT 11/M00 A2998 RMK A01 T01121003  RH  046%=      5-min Rain = 0
KMNS 151110Z 21011KT 11/M00 A2998 RMK A01 T01111002  RH  046%=      5-min Rain = 0
KMNS 151115Z 21011KT 11/M00 A2998 RMK A01 T01111001  RH  046%=      5-min Rain = 0
KMNS 151120Z 21011KT 11/M00 A2998 RMK A01 T01091001  RH  047%=      5-min Rain = 0
KMNS 151125Z 21012KT 11/00 A2998 RMK A01 T01120001  RH  047%=      5-min Rain = 0
KMNS 151130Z 22012KT 11/00 A2998 RMK A01 T01140003  RH  047%=      5-min Rain = 0
KMNS 151135Z 22013KT 12/01 A2998 RMK A01 T01170005  RH  046%=      5-min Rain = 0
KMNS 151140Z 22014KT 12/01 A2998 RMK A01 T01190006  RH  046%=      5-min Rain = 0
KMNS 151145Z 22014KT 12/01 A2998 RMK A01 T01230009  RH  046%=      5-min Rain = 0
KMNS 151150Z 22014KT 13/01 A2998 RMK A01 T01270011  RH  046%=      5-min Rain = 0
KMNS 151155Z 22013KT 13/01 A2998 RMK A01 T01260012  RH  046%=      5-min Rain = 0
KMNS 151200Z 22014KT 13/01 A2998 RMK A01 T01290014  RH  046%=      5-min Rain = 0
KMNS 151205Z 21014KT 13/01 A2998 RMK A01 T01290014  RH  046%=      5-min Rain = 0
KMNS 151210Z 21014KT 13/02 A2998 RMK A01 T01290015  RH  046%=      5-min Rain = 0
KMNS 151215Z 21014KT 13/02 A2998 RMK A01 T01280015  RH  047%=      5-min Rain = 0
KMNS 151220Z 21014KT 13/02 A2999 RMK A01 T01280016  RH  047%=      5-min Rain = 0
KMNS 151225Z 21014KT 13/02 A2998 RMK A01 T01290016  RH  047%=      5-min Rain = 0
KMNS 151230Z 21014KT 13/02 A2999 RMK A01 T01290017  RH  047%=      5-min Rain = 0
KMNS 151235Z 21014KT 13/02 A2999 RMK A01 T01280017  RH  047%=      5-min Rain = 0
KMNS 151240Z 21014KT 13/02 A2999 RMK A01 T01290018  RH  048%=      5-min Rain = 0
KMNS 151245Z 21012KT 13/02 A2998 RMK A01 T01290018  RH  047%=      5-min Rain = 0
KMNS 151250Z 21011KT 13/02 A2999 RMK A01 T01260018  RH  048%=      5-min Rain = 0
KMNS 151255Z 20011KT 12/02 A2999 RMK A01 T01240018  RH  049%=      5-min Rain = 0
KMNS 151300Z 20011KT 12/02 A2998 RMK A01 T01220018  RH  050%=      5-min Rain = 0
KMNS 151305Z 20012KT 12/02 A2999 RMK A01 T01230020  RH  050%=      5-min Rain = 0
KMNS 151310Z 20012KT 13/02 A2999 RMK A01 T01250022  RH  050%=      5-min Rain = 0
KMNS 151315Z 21012KT 13/02 A2999 RMK A01 T01270023  RH  050%=      5-min Rain = 0
KMNS 151320Z 21012KT 13/02 A2999 RMK A01 T01270024  RH  050%=      5-min Rain = 0
KMNS 151325Z 21012KT 13/03 A2999 RMK A01 T01300026  RH  050%=      5-min Rain = 0
KMNS 151330Z 22011KT 13/03 A2999 RMK A01 T01320028  RH  050%=      5-min Rain = 0
KMNS 151335Z 21012KT 14/03 A2999 RMK A01 T01360030  RH  050%=      5-min Rain = 0
KMNS 151340Z 21014KT 14/03 A2998 RMK A01 T01400032  RH  049%=      5-min Rain = 0
KMNS 151345Z 21014KT 14/03 A2998 RMK A01 T01410032  RH  049%=      5-min Rain = 0
KMNS 151350Z 21015KT 14/03 A2998 RMK A01 T01420033  RH  049%=      5-min Rain = 0
KMNS 151355Z 21015KT 14/03 A2998 RMK A01 T01430033  RH  049%=      5-min Rain = 0
KMNS 151400Z 21015KT 14/03 A2998 RMK A01 T01430034  RH  049%=      5-min Rain = 0
KMNS 151405Z 21015G20KT 15/04 A2998 RMK A01 T01480036  RH  048%=      5-min Rain = 0
KMNS 151410Z 22016G21KT 15/04 A2998 RMK A01 T01540038  RH  047%=      5-min Rain = 0
KMNS 151415Z 22016KT 16/04 A2998 RMK A01 T01580039  RH  046%=      5-min Rain = 0
KMNS 151420Z 21016KT 16/04 A2998 RMK A01 T01590039  RH  046%=      5-min Rain = 0
KMNS 151425Z 21014G19KT 16/04 A2998 RMK A01 T01570039  RH  046%=      5-min Rain = 0
KMNS 151430Z 21014KT 16/04 A2998 RMK A01 T01560039  RH  046%=      5-min Rain = 0
KMNS 151435Z 21015G20KT 16/04 A2999 RMK A01 T01550039  RH  047%=      5-min Rain = 0
KMNS 151440Z 21014KT 16/04 A2999 RMK A01 T01550038  RH  046%=      5-min Rain = 0
KMNS 151445Z 21014KT 16/04 A2998 RMK A01 T01570038  RH  046%=      5-min Rain = 0
KMNS 151450Z 21015KT 16/04 A2998 RMK A01 T01610039  RH  045%=      5-min Rain = 0
KMNS 151455Z 22015KT 17/04 A2999 RMK A01 T01650039  RH  044%=      5-min Rain = 0
KMNS 151500Z 22015KT 17/04 A2999 RMK A01 T01700039  RH  043%=      5-min Rain = 0
KMNS 151505Z 22016G21KT 17/04 A2999 RMK A01 T01740040  RH  042%=      5-min Rain = 0
KMNS 151510Z 22016G22KT 18/04 A2999 RMK A01 T01790040  RH  040%=      5-min Rain = 0
KMNS 151515Z 22019G26KT 19/04 A2999 RMK A01 T01860039  RH  039%=      5-min Rain = 0
KMNS 151520Z 22018G24KT 19/04 A2999 RMK A01 T01880039  RH  038%=      5-min Rain = 0
KMNS 151525Z 22019G25KT 19/04 A2999 RMK A01 T01900038  RH  037%=      5-min Rain = 0
KMNS 151530Z 22019G25KT 19/04 A2999 RMK A01 T01920038  RH  037%=      5-min Rain = 0
KMNS 151535Z 22020G27KT 19/04 A30 RMK A01 T01920037  RH  036%=      5-min Rain = 0
KMNS 151540Z 21019KT 19/04 A30 RMK A01 T01920037  RH  036%=      5-min Rain = 0
KMNS 151545Z 22021G26KT 19/04 A30 RMK A01 T01930037  RH  036%=      5-min Rain = 0
KMNS 151550Z 22020G26KT 20/04 A30 RMK A01 T01950037  RH  036%=      5-min Rain = 0
KMNS 151555Z 22019G24KT 20/04 A30 RMK A01 T01970037  RH  035%=      5-min Rain = 0
KMNS 151600Z 22018KT 20/04 A30 RMK A01 T02000037  RH  035%=      5-min Rain = 0
KMNS 151605Z 22018G25KT 20/04 A30 RMK A01 T02040038  RH  034%=      5-min Rain = 0
KMNS 151610Z 22021G28KT 21/04 A30 RMK A01 T02060038  RH  034%=      5-min Rain = 0
KMNS 151615Z 22021G28KT 21/04 A30 RMK A01 T02070038  RH  034%=      5-min Rain = 0
KMNS 151620Z 23021G29KT 21/04 A30 RMK A01 T02120039  RH  033%=      5-min Rain = 0
KMNS 151625Z 22020G25KT 22/04 A30 RMK A01 T02180038  RH  031%=      5-min Rain = 0
KMNS 151630Z 22022G29KT 22/04 A30 RMK A01 T02180037  RH  031%=      5-min Rain = 0
KMNS 151635Z 22024G32KT 22/04 A30 RMK A01 T02190038  RH  031%=      5-min Rain = 0
KMNS 151640Z 23024G31KT 22/04 A3001 RMK A01 T02220039  RH  031%=      5-min Rain = 0
KMNS 151645Z 23021G30KT 22/04 A3001 RMK A01 T02230038  RH  030%=      5-min Rain = 0
KMNS 151650Z 22021G30KT 23/04 A3001 RMK A01 T02270039  RH  030%=      5-min Rain = 0
KMNS 151655Z 22023G32KT 23/04 A3001 RMK A01 T02290039  RH  030%=      5-min Rain = 0
KMNS 151700Z 23025G31KT 23/04 A3001 RMK A01 T02280040  RH  030%=      5-min Rain = 0
KMNS 151705Z 23021G27KT 23/04 A3001 RMK A01 T02260039  RH  030%=      5-min Rain = 0
KMNS 151710Z 23024G30KT 23/04 A3001 RMK A01 T02270039  RH  030%=      5-min Rain = 0
KMNS 151715Z 23022G28KT 23/04 A3001 RMK A01 T02280040  RH  030%=      5-min Rain = 0
KMNS 151720Z 23023G31KT 23/04 A30 RMK A01 T02320041  RH  029%=      5-min Rain = 0
KMNS 151725Z 23026G31KT 23/04 A30 RMK A01 T02310043  RH  030%=      5-min Rain = 0
KMNS 151730Z 23023G31KT 24/04 A30 RMK A01 T02350044  RH  030%=      5-min Rain = 0
KMNS 151735Z 24024G30KT 24/04 A30 RMK A01 T02360043  RH  029%=      5-min Rain = 0
KMNS 151740Z 24025G30KT 24/04 A30 RMK A01 T02360043  RH  029%=      5-min Rain = 0
KMNS 151745Z 23025G31KT 24/04 A30 RMK A01 T02350043  RH  029%=      5-min Rain = 0
KMNS 151750Z 23026G33KT 24/04 A30 RMK A01 T02370044  RH  029%=      5-min Rain = 0
KMNS 151755Z 24026G31KT 24/04 A30 RMK A01 T02380043  RH  029%=      5-min Rain = 0
KMNS 151800Z 24024G31KT 24/04 A30 RMK A01 T02390043  RH  029%=      5-min Rain = 0
KMNS 151805Z 23026G36KT 24/04 A2999 RMK A01 T02400044  RH  029%=      5-min Rain = 0
KMNS 151810Z 25024G31KT 25/04 A2999 RMK A01 T02450044  RH  028%=      5-min Rain = 0
KMNS 151815Z 24024G30KT 25/04 A2999 RMK A01 T02490043  RH  027%=      5-min Rain = 0
KMNS 151820Z 24023G29KT 25/04 A2999 RMK A01 T02500042  RH  027%=      5-min Rain = 0
KMNS 151825Z 25025G33KT 25/04 A2999 RMK A01 T02500042  RH  027%=      5-min Rain = 0
KMNS 151830Z 24026G38KT 25/04 A2998 RMK A01 T02450040  RH  027%=      5-min Rain = 0
KMNS 151835Z 23026G35KT 24/04 A2998 RMK A01 T02410041  RH  028%=      5-min Rain = 0
KMNS 151840Z 23025G34KT 24/04 A2998 RMK A01 T02420040  RH  028%=      5-min Rain = 0
KMNS 151845Z 24025G33KT 24/04 A2998 RMK A01 T02430040  RH  027%=      5-min Rain = 0
KMNS 151850Z 23026G35KT 24/04 A2997 RMK A01 T02390039  RH  028%=      5-min Rain = 0
KMNS 151855Z 24027G32KT 24/04 A2997 RMK A01 T02360040  RH  028%=      5-min Rain = 0
KMNS 151900Z 25028G34KT 23/04 A2997 RMK A01 T02340041  RH  029%=      5-min Rain = 0
KMNS 151905Z 24027G33KT 24/04 A2997 RMK A01 T02430041  RH  028%=      5-min Rain = 0
KMNS 151910Z 24025G32KT 25/04 A2996 RMK A01 T02500041  RH  026%=      5-min Rain = 0
KMNS 151915Z 25026G36KT 25/04 A2996 RMK A01 T02520041  RH  026%=      5-min Rain = 0
KMNS 151920Z 24031G40KT 25/04 A2995 RMK A01 T02530040  RH  026%=      5-min Rain = 0
KMNS 151925Z 24026G37KT 25/04 A2995 RMK A01 T02500039  RH  026%=      5-min Rain = 0
KMNS 151930Z 24027G40KT 25/04 A2995 RMK A01 T02530039  RH  026%=      5-min Rain = 0
KMNS 151935Z 24028G36KT 25/04 A2995 RMK A01 T02460038  RH  026%=      5-min Rain = 0
KMNS 151940Z 24026G33KT 24/04 A2995 RMK A01 T02430037  RH  027%=      5-min Rain = 0
KMNS 151945Z 24025G30KT 24/04 A2995 RMK A01 T02400036  RH  027%=      5-min Rain = 0
KMNS 151950Z 24025G33KT 24/04 A2994 RMK A01 T02380037  RH  028%=      5-min Rain = 0
KMNS 151955Z 24026G33KT 24/04 A2994 RMK A01 T02380037  RH  027%=      5-min Rain = 0
KMNS 152000Z 24025G35KT 24/04 A2994 RMK A01 T02380037  RH  028%=      5-min Rain = 0
KMNS 152005Z 24025G32KT 24/04 A2994 RMK A01 T02420037  RH  027%=      5-min Rain = 0
KMNS 152010Z 23025G37KT 24/04 A2993 RMK A01 T02420037  RH  027%=      5-min Rain = 0
KMNS 152015Z 24027G34KT 25/04 A2993 RMK A01 T02460037  RH  026%=      5-min Rain = 0
KMNS 152020Z 25026G36KT 24/04 A2993 RMK A01 T02430037  RH  027%=      5-min Rain = 0
KMNS 152025Z 23025G39KT 24/04 A2993 RMK A01 T02380036  RH  027%=      5-min Rain = 0
KMNS 152030Z 23026G33KT 24/04 A2993 RMK A01 T02390038  RH  028%=      5-min Rain = 0
KMNS 152035Z 24026G34KT 24/04 A2994 RMK A01 T02370039  RH  028%=      5-min Rain = 0
KMNS 152040Z 24025G33KT 24/04 A2993 RMK A01 T02390039  RH  028%=      5-min Rain = 0
KMNS 152045Z 23023G31KT 24/04 A2993 RMK A01 T02430039  RH  027%=      5-min Rain = 0
KMNS 152050Z 24025G35KT 24/04 A2993 RMK A01 T02360039  RH  028%=      5-min Rain = 0
KMNS 152055Z 23026G36KT 24/04 A2993 RMK A01 T02350039  RH  028%=      5-min Rain = 0
KMNS 152100Z 24025G33KT 24/04 A2993 RMK A01 T02390040  RH  028%=      5-min Rain = 0
KMNS 152105Z 24027G34KT 24/04 A2993 RMK A01 T02390040  RH  028%=      5-min Rain = 0
KMNS 152110Z 24026G33KT 24/04 A2993 RMK A01 T02400041  RH  028%=      5-min Rain = 0
KMNS 152115Z 24026G36KT 24/04 A2993 RMK A01 T02390040  RH  028%=      5-min Rain = 0
KMNS 152120Z 24026G33KT 24/04 A2993 RMK A01 T02390040  RH  028%=      5-min Rain = 0
KMNS 152125Z 23026G31KT 24/04 A2993 RMK A01 T02350039  RH  028%=      5-min Rain = 0
KMNS 152130Z 24026G34KT 23/04 A2993 RMK A01 T02340040  RH  029%=      5-min Rain = 0
KMNS 152135Z 23025G32KT 24/04 A2993 RMK A01 T02380040  RH  028%=      5-min Rain = 0
KMNS 152140Z 23028G34KT 23/04 A2993 RMK A01 T02330039  RH  029%=      5-min Rain = 0
KMNS 152145Z 23025G32KT 23/04 A2993 RMK A01 T02320040  RH  029%=      5-min Rain = 0
KMNS 152150Z 24022G30KT 23/04 A2993 RMK A01 T02320040  RH  029%=      5-min Rain = 0
KMNS 152155Z 23024G31KT 23/04 A2993 RMK A01 T02310040  RH  029%=      5-min Rain = 0
KMNS 152200Z 24025G33KT 23/04 A2994 RMK A01 T02320041  RH  029%=      5-min Rain = 0
KMNS 152205Z 25026G36KT 23/04 A2994 RMK A01 T02310042  RH  030%=      5-min Rain = 0
KMNS 152210Z 25027G35KT 23/04 A2993 RMK A01 T02310042  RH  030%=      5-min Rain = 0
KMNS 152215Z 24026G34KT 23/04 A2993 RMK A01 T02310043  RH  030%=      5-min Rain = 0
KMNS 152220Z 26022G28KT 23/04 A2994 RMK A01 T02340044  RH  030%=      5-min Rain = 0
KMNS 152225Z 25024G31KT 23/04 A2994 RMK A01 T02310044  RH  030%=      5-min Rain = 0
KMNS 152230Z 25022G29KT 23/04 A2994 RMK A01 T02310044  RH  030%=      5-min Rain = 0
KMNS 152235Z 26019G25KT 23/05 A2994 RMK A01 T02300045  RH  031%=      5-min Rain = 0
KMNS 152240Z 27020G26KT 23/05 A2994 RMK A01 T02270045  RH  031%=      5-min Rain = 0
KMNS 152245Z 27016G26KT 23/05 A2994 RMK A01 T02250045  RH  031%=      5-min Rain = 0
KMNS 152250Z 30014G20KT 22/04 A2995 RMK A01 T02200042  RH  032%=      5-min Rain = 0
KMNS 152255Z 30014KT 22/04 A2995 RMK A01 T02150042  RH  033%=      5-min Rain = 0
KMNS 152300Z 31013G19KT 21/04 A2995 RMK A01 T02110039  RH  033%=      5-min Rain = 0
KMNS 152305Z 32012KT 21/04 A2995 RMK A01 T02080038  RH  033%=      5-min Rain = 0
KMNS 152310Z 31013KT 21/04 A2996 RMK A01 T02060038  RH  034%=      5-min Rain = 0
KMNS 152315Z 31013KT 21/04 A2996 RMK A01 T02050037  RH  034%=      5-min Rain = 0
KMNS 152320Z 31011KT 20/04 A2996 RMK A01 T02030037  RH  034%=      5-min Rain = 0
KMNS 152325Z 31012KT 20/04 A2997 RMK A01 T02020036  RH  034%=      5-min Rain = 0
KMNS 152330Z 31014G19KT 20/04 A2997 RMK A01 T01980036  RH  035%=      5-min Rain = 0
KMNS 152335Z 31014G19KT 20/04 A2997 RMK A01 T01950036  RH  036%=      5-min Rain = 0
KMNS 152340Z 30012KT 19/04 A2998 RMK A01 T01910036  RH  036%=      5-min Rain = 0
KMNS 152345Z 30014KT 19/04 A2998 RMK A01 T01900037  RH  037%=      5-min Rain = 0
KMNS 152350Z 30011KT 19/04 A2998 RMK A01 T01880037  RH  038%=      5-min Rain = 0
KMNS 152355Z 29010KT 19/04 A2998 RMK A01 T01860038  RH  038%=      5-min Rain = 0
KMNS 160000Z 29011KT 18/04 A2998 RMK A01 T01840039  RH  039%=      5-min Rain = 0
KMNS 160005Z 29012KT 18/04 A2998 RMK A01 T01830040  RH  040%=      5-min Rain = 0
KMNS 160010Z 29011KT 18/04 A2998 RMK A01 T01810041  RH  040%=      5-min Rain = 0
KMNS 160015Z 29012G17KT 18/04 A2999 RMK A01 T01780043  RH  041%=      5-min Rain = 0
KMNS 160020Z 29012KT 18/05 A2999 RMK A01 T01770048  RH  043%=      5-min Rain = 0
KMNS 160025Z 29013KT 18/05 A2999 RMK A01 T01750052  RH  045%=      5-min Rain = 0
KMNS 160030Z 29011G16KT 17/05 A2999 RMK A01 T01730053  RH  046%=      5-min Rain = 0
KMNS 160035Z 29010KT 17/05 A2999 RMK A01 T01700053  RH  047%=      5-min Rain = 0
KMNS 160040Z 29009KT 17/05 A2999 RMK A01 T01680053  RH  048%=      5-min Rain = 0
KMNS 160045Z 28007KT 17/05 A30 RMK A01 T01660052  RH  048%=      5-min Rain = 0
KMNS 160050Z 28006KT 16/05 A30 RMK A01 T01640052  RH  048%=      5-min Rain = 0
KMNS 160055Z 27006KT 16/05 A30 RMK A01 T01620052  RH  049%=      5-min Rain = 0
KMNS 160100Z 27006KT 16/05 A30 RMK A01 T01600051  RH  049%=      5-min Rain = 0
KMNS 160105Z 26007KT 16/05 A30 RMK A01 T01570049  RH  049%=      5-min Rain = 0
KMNS 160110Z 26007KT 15/05 A30 RMK A01 T01540048  RH  050%=      5-min Rain = 0
KMNS 160115Z 25008KT 15/05 A3001 RMK A01 T01530049  RH  051%=      5-min Rain = 0
KMNS 160120Z 25009KT 15/05 A3001 RMK A01 T01540050  RH  051%=      5-min Rain = 0
KMNS 160125Z 25009KT 16/05 A30 RMK A01 T01570051  RH  051%=      5-min Rain = 0
KMNS 160130Z 26009KT 16/05 A3001 RMK A01 T01580052  RH  050%=      5-min Rain = 0
KMNS 160135Z 27009KT 16/05 A3001 RMK A01 T01560052  RH  051%=      5-min Rain = 0
KMNS 160140Z 27009KT 15/05 A3001 RMK A01 T01540052  RH  052%=      5-min Rain = 0
KMNS 160145Z 28009KT 15/05 A3001 RMK A01 T01540053  RH  052%=      5-min Rain = 0
KMNS 160150Z 28008KT 15/05 A3001 RMK A01 T01540054  RH  052%=      5-min Rain = 0
KMNS 160155Z 28007KT 15/05 A3001 RMK A01 T01530054  RH  053%=      5-min Rain = 0
KMNS 160200Z 28007KT 15/05 A3002 RMK A01 T01510054  RH  053%=      5-min Rain = 0
KMNS 160205Z 28008KT 15/05 A3002 RMK A01 T01510054  RH  054%=      5-min Rain = 0
KMNS 160210Z 28007KT 15/05 A3002 RMK A01 T01500054  RH  054%=      5-min Rain = 0
KMNS 160215Z 28008KT 15/05 A3003 RMK A01 T01490054  RH  054%=      5-min Rain = 0
KMNS 160220Z 27008KT 15/06 A3003 RMK A01 T01490055  RH  054%=      5-min Rain = 0
KMNS 160225Z 28008KT 15/06 A3003 RMK A01 T01490055  RH  055%=      5-min Rain = 0
KMNS 160230Z 28009KT 15/05 A3003 RMK A01 T01460054  RH  055%=      5-min Rain = 0
KMNS 160235Z 27009KT 15/06 A3003 RMK A01 T01490057  RH  055%=      5-min Rain = 0
KMNS 160240Z 28008KT 15/06 A3003 RMK A01 T01470056  RH  056%=      5-min Rain = 0
KMNS 160245Z 28008KT 15/06 A3003 RMK A01 T01460056  RH  056%=      5-min Rain = 0
KMNS 160250Z 28008KT 15/06 A3004 RMK A01 T01450056  RH  056%=      5-min Rain = 0
KMNS 160255Z 28009KT 15/06 A3004 RMK A01 T01450057  RH  057%=      5-min Rain = 0
KMNS 160300Z 28007KT 15/06 A3005 RMK A01 T01450057  RH  057%=      5-min Rain = 0
KMNS 160305Z 27007KT 14/06 A3005 RMK A01 T01420056  RH  058%=      5-min Rain = 0
KMNS 160310Z 27007KT 14/06 A3005 RMK A01 T01410056  RH  058%=      5-min Rain = 0
KMNS 160315Z 27006KT 14/06 A3005 RMK A01 T01390056  RH  059%=      5-min Rain = 0
KMNS 160320Z 27006KT 14/06 A3005 RMK A01 T01370055  RH  059%=      5-min Rain = 0
KMNS 160325Z 27006KT 14/06 A3006 RMK A01 T01350055  RH  060%=      5-min Rain = 0
KMNS 160330Z 27006KT 13/05 A3006 RMK A01 T01330054  RH  060%=      5-min Rain = 0
KMNS 160335Z 28006KT 13/05 A3006 RMK A01 T01300054  RH  061%=      5-min Rain = 0
KMNS 160340Z 28006KT 13/05 A3006 RMK A01 T01280053  RH  062%=      5-min Rain = 0
KMNS 160345Z 28006KT 13/05 A3006 RMK A01 T01260053  RH  062%=      5-min Rain = 0
KMNS 160350Z 27006KT 13/05 A3007 RMK A01 T01250052  RH  063%=      5-min Rain = 0
KMNS 160355Z 27006KT 13/05 A3007 RMK A01 T01250053  RH  063%=      5-min Rain = 0
KMNS 160400Z 27007KT 13/05 A3006 RMK A01 T01270053  RH  062%=      5-min Rain = 0
KMNS 160405Z 27007KT 13/05 A3007 RMK A01 T01260052  RH  062%=      5-min Rain = 0
KMNS 160410Z 26008KT 13/05 A3007 RMK A01 T01250051  RH  062%=      5-min Rain = 0
KMNS 160415Z 27008KT 13/05 A3007 RMK A01 T01260052  RH  062%=      5-min Rain = 0
KMNS 160420Z 27009KT 13/06 A3008 RMK A01 T01310055  RH  061%=      5-min Rain = 0
KMNS 160425Z 27008KT 13/06 A3008 RMK A01 T01330056  RH  061%=      5-min Rain = 0
KMNS 160430Z 27008KT 13/06 A3008 RMK A01 T01330056  RH  061%=      5-min Rain = 0
KMNS 160435Z 28008KT 13/06 A3009 RMK A01 T01330056  RH  061%=      5-min Rain = 0
KMNS 160440Z 28008KT 13/06 A3009 RMK A01 T01320056  RH  061%=      5-min Rain = 0
KMNS 160445Z 28008KT 13/06 A3009 RMK A01 T01310055  RH  062%=      5-min Rain = 0
KMNS 160450Z 28007KT 13/06 A3009 RMK A01 T01290055  RH  062%=      5-min Rain = 0
KMNS 160455Z 29008KT 13/05 A3009 RMK A01 T01250054  RH  063%=      5-min Rain = 0
KMNS 160500Z 29007KT 12/05 A3008 RMK A01 T01230053  RH  064%=      5-min Rain = 0
KMNS 160505Z 29008KT 12/05 A3009 RMK A01 T01220053  RH  064%=      5-min Rain = 0
KMNS 160510Z 29007KT 12/05 A3009 RMK A01 T01210053  RH  064%=      5-min Rain = 0
KMNS 160515Z 28007KT 12/05 A3009 RMK A01 T01190052  RH  065%=      5-min Rain = 0
KMNS 160520Z 28006KT 12/05 A3009 RMK A01 T01180052  RH  065%=      5-min Rain = 0
KMNS 160525Z 28006KT 12/05 A301 RMK A01 T01190052  RH  065%=      5-min Rain = 0
KMNS 160530Z 27006KT 12/05 A301 RMK A01 T01180051  RH  065%=      5-min Rain = 0
KMNS 160535Z 26006KT 12/05 A301 RMK A01 T01160048  RH  064%=      5-min Rain = 0
KMNS 160540Z 26006KT 12/05 A301 RMK A01 T01150048  RH  065%=      5-min Rain = 0
KMNS 160545Z 26006KT 12/05 A301 RMK A01 T01150047  RH  065%=      5-min Rain = 0
KMNS 160550Z 27006KT 12/05 A301 RMK A01 T01150048  RH  064%=      5-min Rain = 0
KMNS 160555Z 27006KT 12/05 A301 RMK A01 T01170049  RH  064%=      5-min Rain = 0

Page generated in 0.0298 seconds.